Time;durP1;ratioP1;P1;durP2;ratioP2;P2;SDS_P1;SDS_P2;PMS_P1;PMS_P2;Temp;Humidity;BMP_temperature;BMP_pressure;BME280_temperature;BME280_humidity;BME280_pressure;Samples;Min_cycle;Max_cycle;Signal;HPM_P1;HPM_P2
2021/07/03 00:00:12;;;;;;;13.17;11.73;;;13.50;99.90;;;;;;4980159;28;20660;-92
2021/07/03 00:02:39;;;;;;;13.10;12.10;;;13.50;99.90;;;;;;4984103;28;20692;-92
2021/07/03 00:05:09;;;;;;;11.57;10.57;;;13.60;99.90;;;;;;4983699;28;20667;-94
2021/07/03 00:07:35;;;;;;;13.27;11.90;;;13.50;99.90;;;;;;4986033;28;20661;-92
2021/07/03 00:10:05;;;;;;;12.30;11.20;;;13.50;99.90;;;;;;4988007;28;20647;-91
2021/07/03 00:12:33;;;;;;;12.77;11.67;;;13.40;99.90;;;;;;4980126;28;20680;-93
2021/07/03 00:15:00;;;;;;;13.97;12.63;;;13.40;99.90;;;;;;4982754;28;20627;-91
2021/07/03 00:17:28;;;;;;;12.83;11.47;;;13.40;99.90;;;;;;4978893;28;20660;-92
2021/07/03 00:19:54;;;;;;;12.67;11.67;;;13.40;99.90;;;;;;4984991;28;20648;-95
2021/07/03 00:22:23;;;;;;;14.73;11.40;;;13.40;99.90;;;;;;4985964;28;20668;-91
2021/07/03 00:24:50;;;;;;;13.07;11.93;;;13.30;99.90;;;;;;4985003;28;20817;-92
2021/07/03 00:27:20;;;;;;;12.47;11.17;;;13.20;99.90;;;;;;4980489;28;20724;-92
2021/07/03 00:29:47;;;;;;;11.87;10.90;;;13.20;99.90;;;;;;4985575;28;20709;-91
2021/07/03 00:32:13;;;;;;;13.43;12.33;;;13.20;99.90;;;;;;4982422;28;21223;-93
2021/07/03 00:34:40;;;;;;;13.73;12.63;;;13.30;99.90;;;;;;4981426;28;20756;-92
2021/07/03 00:37:07;;;;;;;13.90;12.80;;;13.20;99.90;;;;;;4985542;28;20642;-92
2021/07/03 00:39:36;;;;;;;13.90;12.60;;;13.20;99.90;;;;;;4981229;28;20772;-92
2021/07/03 00:42:03;;;;;;;12.90;11.73;;;13.20;99.90;;;;;;4980424;28;20668;-91
2021/07/03 00:44:32;;;;;;;13.27;12.17;;;13.20;99.90;;;;;;4983915;28;20648;-92
2021/07/03 00:47:01;;;;;;;13.90;12.47;;;13.20;99.90;;;;;;4985539;28;20643;-91
2021/07/03 00:49:29;;;;;;;14.77;13.47;;;13.20;99.90;;;;;;4974751;28;21159;-91
2021/07/03 00:51:56;;;;;;;13.53;12.33;;;13.20;99.90;;;;;;4985330;28;20727;-92
2021/07/03 00:54:23;;;;;;;13.70;12.33;;;13.20;99.90;;;;;;4988264;28;21060;-92
2021/07/03 00:57:01;;;;;;;13.47;12.30;;;13.20;99.90;;;;;;4982177;28;22215;-92
2021/07/03 00:59:33;;;;;;;13.27;12.17;;;13.20;99.90;;;;;;4988453;28;20657;-92
2021/07/03 01:02:00;;;;;;;13.40;12.10;;;13.10;99.90;;;;;;4989395;28;20664;-92
2021/07/03 01:04:27;;;;;;;14.17;12.97;;;13.00;99.90;;;;;;4995059;28;21168;-93
2021/07/03 01:06:54;;;;;;;14.43;13.23;;;13.00;99.90;;;;;;4983174;28;20667;-92
2021/07/03 01:09:21;;;;;;;14.40;13.00;;;13.00;99.90;;;;;;4961374;28;20625;-92
2021/07/03 01:11:50;;;;;;;14.40;12.90;;;13.00;99.90;;;;;;4990786;28;20651;-94
2021/07/03 01:14:21;;;;;;;13.70;12.40;;;12.90;99.90;;;;;;4983927;28;20639;-95
2021/07/03 01:16:49;;;;;;;14.07;12.67;;;12.80;99.90;;;;;;4966220;28;20716;-93
2021/07/03 01:19:17;;;;;;;14.90;13.37;;;12.90;99.90;;;;;;4983185;28;20665;-93
2021/07/03 01:21:48;;;;;;;14.63;13.13;;;12.90;99.90;;;;;;4987399;28;20683;-92
2021/07/03 01:24:16;;;;;;;13.40;12.10;;;12.90;99.90;;;;;;4970191;28;20964;-92
2021/07/03 01:26:45;;;;;;;13.47;12.13;;;12.80;99.90;;;;;;4980593;28;21194;-92
2021/07/03 01:29:12;;;;;;;15.27;13.83;;;12.80;99.90;;;;;;4984406;28;20628;-91
2021/07/03 01:31:41;;;;;;;13.50;12.37;;;12.80;99.90;;;;;;4985390;28;20751;-93
2021/07/03 01:34:08;;;;;;;15.37;13.90;;;12.70;99.90;;;;;;4984460;28;20625;-92
2021/07/03 01:36:37;;;;;;;15.07;13.67;;;12.80;99.90;;;;;;4987392;28;20708;-92
2021/07/03 01:39:06;;;;;;;14.03;12.73;;;12.80;99.90;;;;;;4958720;28;20666;-92
2021/07/03 01:41:33;;;;;;;16.73;15.13;;;12.80;99.90;;;;;;4984597;28;20639;-94
2021/07/03 01:44:00;;;;;;;15.33;14.00;;;12.80;99.90;;;;;;4984832;28;20691;-94
2021/07/03 01:46:28;;;;;;;14.87;13.23;;;12.80;99.90;;;;;;4984322;28;20655;-92
2021/07/03 01:48:55;;;;;;;15.23;13.77;;;12.70;99.90;;;;;;4989565;28;20625;-93
2021/07/03 01:51:22;;;;;;;14.90;13.67;;;12.60;99.90;;;;;;4986240;28;20737;-91
2021/07/03 01:53:49;;;;;;;15.37;13.77;;;12.60;99.90;;;;;;5006022;28;20732;-92
2021/07/03 01:56:17;;;;;;;14.77;13.27;;;12.60;99.90;;;;;;4992842;28;20634;-92
2021/07/03 01:58:44;;;;;;;14.80;13.37;;;12.60;99.90;;;;;;4983812;28;20758;-91
2021/07/03 02:01:11;;;;;;;13.87;12.60;;;12.50;99.90;;;;;;4965629;28;20625;-93
2021/07/03 02:03:38;;;;;;;14.70;13.50;;;12.60;99.90;;;;;;4990997;28;20660;-92
2021/07/03 02:06:05;;;;;;;15.23;13.83;;;12.60;99.90;;;;;;5003168;28;20636;-91
2021/07/03 02:08:32;;;;;;;16.40;15.00;;;12.60;99.90;;;;;;5008373;28;20706;-93
2021/07/03 02:11:00;;;;;;;16.73;14.27;;;12.50;99.90;;;;;;4977898;28;20635;-92
2021/07/03 02:13:31;;;;;;;14.37;13.07;;;12.50;99.90;;;;;;4988013;28;20660;-94
2021/07/03 02:15:58;;;;;;;14.97;13.50;;;12.40;99.90;;;;;;4996214;28;20711;-93
2021/07/03 02:18:25;;;;;;;14.90;13.70;;;12.40;99.90;;;;;;5005617;28;20691;-94
2021/07/03 02:20:54;;;;;;;14.53;13.33;;;12.50;99.90;;;;;;5000170;28;20633;-94
2021/07/03 02:23:21;;;;;;;16.60;14.60;;;12.40;99.90;;;;;;4979868;28;20830;-92
2021/07/03 02:25:48;;;;;;;15.13;13.73;;;12.40;99.90;;;;;;4984614;28;20625;-94
2021/07/03 02:28:15;;;;;;;14.37;13.17;;;12.40;99.90;;;;;;4986486;28;20988;-92
2021/07/03 02:30:44;;;;;;;16.50;13.87;;;12.30;99.90;;;;;;4978741;28;21177;-93
2021/07/03 02:33:12;;;;;;;14.77;13.40;;;12.40;99.90;;;;;;4987061;28;21175;-92
2021/07/03 02:35:41;;;;;;;15.43;14.10;;;12.40;99.90;;;;;;4984900;28;20655;-93
2021/07/03 02:38:08;;;;;;;14.73;13.53;;;12.40;99.90;;;;;;4979951;28;21022;-94
2021/07/03 02:40:35;;;;;;;15.47;13.90;;;12.30;99.90;;;;;;4973749;28;20682;-93
2021/07/03 02:43:03;;;;;;;16.87;14.60;;;12.30;99.90;;;;;;4988101;28;20680;-93
2021/07/03 02:45:30;;;;;;;16.17;14.70;;;12.30;99.90;;;;;;4972603;28;20637;-92
2021/07/03 02:47:59;;;;;;;15.47;13.97;;;12.30;99.90;;;;;;4975898;28;21024;-92
2021/07/03 02:50:26;;;;;;;15.80;14.13;;;12.30;99.90;;;;;;4965952;28;20676;-92
2021/07/03 02:52:54;;;;;;;15.07;13.77;;;12.20;99.90;;;;;;4968906;28;21242;-93
2021/07/03 02:55:25;;;;;;;14.13;12.60;;;12.20;99.90;;;;;;4983790;28;20622;-94
2021/07/03 02:57:53;;;;;;;16.00;14.60;;;12.10;99.90;;;;;;5000705;28;20624;-94
2021/07/03 03:00:21;;;;;;;15.30;14.00;;;12.20;99.90;;;;;;4980795;28;20676;-94
2021/07/03 03:02:48;;;;;;;14.93;13.57;;;12.20;99.90;;;;;;4981703;28;21078;-95
2021/07/03 03:05:17;;;;;;;14.83;13.57;;;12.20;99.90;;;;;;4981371;28;20622;-95
2021/07/03 03:07:45;;;;;;;16.17;14.77;;;12.20;99.90;;;;;;4965356;28;20762;-95
2021/07/03 03:10:15;;;;;;;15.90;14.40;;;12.20;99.90;;;;;;4984163;28;20643;-92
2021/07/03 03:12:42;;;;;;;15.73;14.30;;;12.10;99.90;;;;;;4981430;28;21206;-93
2021/07/03 03:15:11;;;;;;;15.57;14.03;;;12.10;99.90;;;;;;4984597;28;20645;-92
2021/07/03 03:17:38;;;;;;;14.33;12.73;;;12.10;99.90;;;;;;4979087;28;21006;-93
2021/07/03 03:20:07;;;;;;;14.23;13.03;;;12.10;99.90;;;;;;4980282;28;21231;-92
2021/07/03 03:22:37;;;;;;;13.90;12.60;;;12.10;99.90;;;;;;4977568;28;21238;-93
2021/07/03 03:25:05;;;;;;;14.60;13.40;;;12.10;99.90;;;;;;4980644;28;20643;-92
2021/07/03 03:27:32;;;;;;;14.87;13.57;;;12.10;99.90;;;;;;4982022;28;20992;-92
2021/07/03 03:29:59;;;;;;;13.73;12.40;;;12.10;99.90;;;;;;4984163;28;20640;-92
2021/07/03 03:32:26;;;;;;;14.27;13.07;;;12.00;99.90;;;;;;4981281;28;20664;-93
2021/07/03 03:34:53;;;;;;;15.53;14.20;;;12.10;99.90;;;;;;4978685;28;20647;-93
2021/07/03 03:37:20;;;;;;;14.97;13.77;;;12.00;99.90;;;;;;4986138;28;20629;-92
2021/07/03 03:39:51;;;;;;;15.83;14.13;;;12.10;99.90;;;;;;4985741;28;20674;-95
2021/07/03 03:42:22;;;;;;;14.40;13.10;;;12.10;99.90;;;;;;4993718;28;20763;-96
2021/07/03 03:44:49;;;;;;;16.03;14.57;;;12.10;99.90;;;;;;4990325;28;21220;-96
2021/07/03 03:47:17;;;;;;;14.47;13.07;;;12.10;99.90;;;;;;4979061;28;20626;-96
2021/07/03 03:49:45;;;;;;;14.13;12.73;;;12.10;99.90;;;;;;4970544;28;20716;-96
2021/07/03 03:52:13;;;;;;;15.80;14.37;;;12.10;99.90;;;;;;4981295;28;21243;-96
2021/07/03 03:54:40;;;;;;;15.07;13.77;;;12.10;99.90;;;;;;4979345;28;20648;-95
2021/07/03 03:57:24;;;;;;;15.53;14.13;;;12.20;99.90;;;;;;4990438;28;20675;-96
2021/07/03 03:59:53;;;;;;;14.13;12.93;;;12.20;99.90;;;;;;4995338;28;20660;-96
2021/07/03 04:02:27;;;;;;;15.57;14.27;;;12.10;99.90;;;;;;4992313;28;20676;-96
2021/07/03 04:05:02;;;;;;;15.03;13.83;;;12.20;99.90;;;;;;4972608;28;20693;-96
2021/07/03 04:07:34;;;;;;;15.20;13.90;;;12.20;99.90;;;;;;5009171;28;20600;-96
2021/07/03 04:10:01;;;;;;;15.47;14.17;;;12.20;99.90;;;;;;5012288;28;20668;-95
2021/07/03 04:12:40;;;;;;;15.37;13.87;;;12.20;99.90;;;;;;4993367;28;20676;-95
2021/07/03 04:15:09;;;;;;;14.17;12.83;;;12.20;99.90;;;;;;4991209;28;20631;-94
2021/07/03 04:17:57;;;;;;;14.93;13.53;;;12.20;99.90;;;;;;4993509;28;20745;-95
2021/07/03 04:20:24;;;;;;;14.50;13.00;;;12.20;99.90;;;;;;5009931;28;20659;-95
2021/07/03 04:22:56;;;;;;;15.87;14.50;;;12.30;99.90;;;;;;5001761;28;20625;-95
2021/07/03 04:25:25;;;;;;;14.20;13.00;;;12.30;99.90;;;;;;5002930;28;20641;-95
2021/07/03 04:27:55;;;;;;;15.07;13.57;;;12.40;99.90;;;;;;5007217;28;20621;-95
2021/07/03 04:30:22;;;;;;;16.60;14.50;;;12.40;99.90;;;;;;4999168;28;20640;-95
2021/07/03 04:32:52;;;;;;;15.37;13.97;;;12.50;99.90;;;;;;4992859;28;20676;-96
2021/07/03 04:35:27;;;;;;;15.30;12.97;;;12.50;99.90;;;;;;5000659;28;20657;-95
2021/07/03 04:37:54;;;;;;;15.27;13.80;;;12.60;99.90;;;;;;4990235;28;21084;-96
2021/07/03 04:40:24;;;;;;;15.77;14.27;;;12.70;99.90;;;;;;4989332;28;20661;-95
2021/07/03 04:42:51;;;;;;;15.60;14.10;;;12.70;99.90;;;;;;4992234;28;20644;-95
2021/07/03 04:45:22;;;;;;;16.67;13.13;;;12.80;99.90;;;;;;4988528;28;20991;-96
2021/07/03 04:47:56;;;;;;;14.93;13.43;;;12.80;99.90;;;;;;4991910;28;20635;-96
2021/07/03 04:50:28;;;;;;;12.97;11.80;;;12.90;99.90;;;;;;4998993;28;20637;-96
2021/07/03 04:52:56;;;;;;;14.73;13.37;;;12.90;99.90;;;;;;4998511;28;20667;-96
2021/07/03 04:55:24;;;;;;;15.23;13.80;;;12.90;99.90;;;;;;4990902;28;20708;-96
2021/07/03 04:57:52;;;;;;;15.23;13.20;;;13.00;99.90;;;;;;4991400;28;20645;-96
2021/07/03 05:00:32;;;;;;;14.70;13.17;;;13.10;99.90;;;;;;4992549;28;20671;-95
2021/07/03 05:03:09;;;;;;;15.40;13.60;;;13.20;99.90;;;;;;4991547;28;20675;-96
2021/07/03 05:05:37;;;;;;;14.23;12.97;;;13.30;99.90;;;;;;4987272;28;20684;-94
2021/07/03 05:08:06;;;;;;;13.47;12.10;;;13.30;99.90;;;;;;4987865;28;20629;-94
2021/07/03 05:10:38;;;;;;;14.23;13.03;;;13.40;99.90;;;;;;4987098;28;20702;-95
2021/07/03 05:13:07;;;;;;;14.23;12.90;;;13.40;99.90;;;;;;4984467;28;20634;-95
2021/07/03 05:15:36;;;;;;;14.30;12.97;;;13.50;99.90;;;;;;4993365;28;20695;-93
2021/07/03 05:18:03;;;;;;;14.53;13.13;;;13.60;99.90;;;;;;5004737;28;20633;-94
2021/07/03 05:20:30;;;;;;;14.30;12.77;;;13.70;99.90;;;;;;5002681;28;20692;-94
2021/07/03 05:22:57;;;;;;;14.73;13.37;;;13.80;99.90;;;;;;4988022;28;20637;-94
2021/07/03 05:25:25;;;;;;;13.73;12.63;;;13.90;99.90;;;;;;4989898;28;21271;-94
2021/07/03 05:27:52;;;;;;;13.87;12.60;;;13.90;99.90;;;;;;4995014;28;21135;-93
2021/07/03 05:30:19;;;;;;;13.10;11.90;;;13.90;99.90;;;;;;4995802;28;20660;-94
2021/07/03 05:32:48;;;;;;;13.37;12.07;;;14.00;99.90;;;;;;4986307;28;20732;-95
2021/07/03 05:35:16;;;;;;;13.43;12.20;;;14.10;99.90;;;;;;5000858;28;20620;-95
2021/07/03 05:37:48;;;;;;;13.67;12.43;;;14.20;99.90;;;;;;4989839;28;20715;-96
2021/07/03 05:40:17;;;;;;;12.73;11.53;;;14.20;99.90;;;;;;5005608;28;20739;-95
2021/07/03 05:42:54;;;;;;;13.03;11.83;;;14.40;99.90;;;;;;4997693;28;20665;-95
2021/07/03 05:45:41;;;;;;;13.50;12.40;;;14.40;99.90;;;;;;4998097;28;20647;-94
2021/07/03 05:48:11;;;;;;;14.00;12.60;;;14.60;99.90;;;;;;4992761;28;20605;-95
2021/07/03 05:50:45;;;;;;;13.63;12.47;;;14.60;99.90;;;;;;5013484;28;20659;-96
2021/07/03 05:53:13;;;;;;;12.57;11.40;;;14.80;99.90;;;;;;4994055;28;20655;-95
2021/07/03 05:55:42;;;;;;;13.53;12.33;;;14.80;99.90;;;;;;4983079;28;20650;-95
2021/07/03 05:58:12;;;;;;;13.33;12.27;;;14.90;99.90;;;;;;5006790;28;20629;-95
2021/07/03 06:00:40;;;;;;;11.80;10.80;;;15.00;99.90;;;;;;4997119;28;20656;-93
2021/07/03 06:03:07;;;;;;;11.57;10.47;;;15.10;99.90;;;;;;4988693;28;20629;-93
2021/07/03 06:05:35;;;;;;;13.87;12.57;;;15.10;99.90;;;;;;4991053;28;20687;-95
2021/07/03 06:08:03;;;;;;;12.10;10.97;;;15.20;99.90;;;;;;4991012;28;20628;-95
2021/07/03 06:10:29;;;;;;;12.93;11.37;;;15.50;99.90;;;;;;4993965;28;20616;-93
2021/07/03 06:12:57;;;;;;;11.57;10.53;;;15.50;99.90;;;;;;4986795;28;20668;-94
2021/07/03 06:15:24;;;;;;;12.80;11.63;;;15.80;99.90;;;;;;4995387;28;20703;-94
2021/07/03 06:17:50;;;;;;;11.87;10.87;;;15.70;99.90;;;;;;4986546;28;20728;-94
2021/07/03 06:20:29;;;;;;;10.93;9.80;;;15.80;99.90;;;;;;4987938;28;20748;-93
2021/07/03 06:22:57;;;;;;;12.40;11.17;;;16.00;99.90;;;;;;4990981;28;21545;-94
2021/07/03 06:25:25;;;;;;;10.37;9.47;;;16.10;99.90;;;;;;4993590;28;20781;-92
2021/07/03 06:27:53;;;;;;;11.00;9.83;;;16.30;99.90;;;;;;4986595;28;21236;-94
2021/07/03 06:30:24;;;;;;;10.50;9.60;;;16.50;99.90;;;;;;4987816;28;20731;-92
2021/07/03 06:32:51;;;;;;;11.37;10.10;;;16.60;99.90;;;;;;4981843;28;20640;-92
2021/07/03 06:35:18;;;;;;;9.83;9.03;;;16.70;99.90;;;;;;4989975;28;21603;-92
2021/07/03 06:37:59;;;;;;;10.00;9.07;;;16.70;99.90;;;;;;4989563;28;21159;-92
2021/07/03 06:40:26;;;;;;;9.17;8.13;;;16.90;99.90;;;;;;4991089;28;20656;-94
2021/07/03 06:42:59;;;;;;;10.50;9.50;;;17.20;99.90;;;;;;5013538;28;20618;-92
2021/07/03 06:45:26;;;;;;;10.40;9.50;;;17.40;99.90;;;;;;5010153;28;20762;-91
2021/07/03 06:47:53;;;;;;;9.73;9.00;;;17.60;99.90;;;;;;5002163;28;20653;-95
2021/07/03 06:50:21;;;;;;;11.73;8.87;;;17.70;99.90;;;;;;4983055;28;20661;-95
2021/07/03 06:52:49;;;;;;;9.80;8.90;;;17.90;99.90;;;;;;4984811;28;20668;-95
2021/07/03 06:55:17;;;;;;;9.60;8.70;;;18.00;99.90;;;;;;4979886;28;20716;-94
2021/07/03 06:57:44;;;;;;;9.20;8.30;;;18.20;99.90;;;;;;4981951;28;20988;-95
2021/07/03 07:00:25;;;;;;;8.00;6.97;;;18.30;99.90;;;;;;4985386;28;20713;-95
2021/07/03 07:02:52;;;;;;;6.97;6.37;;;18.60;99.90;;;;;;4984490;28;20644;-95
2021/07/03 07:05:19;;;;;;;7.73;7.03;;;18.50;99.90;;;;;;4985668;28;21079;-95
2021/07/03 07:07:46;;;;;;;6.67;6.00;;;18.60;99.90;;;;;;4988909;28;20994;-94
2021/07/03 07:10:13;;;;;;;7.87;7.17;;;18.80;99.90;;;;;;4986108;28;21067;-94
2021/07/03 07:12:42;;;;;;;7.23;6.73;;;19.00;99.90;;;;;;4980751;28;20717;-94
2021/07/03 07:15:11;;;;;;;7.60;6.90;;;18.80;99.90;;;;;;4988992;28;20653;-95
2021/07/03 07:17:46;;;;;;;7.30;6.37;;;18.80;99.90;;;;;;4995350;28;20639;-95
2021/07/03 07:20:15;;;;;;;7.77;7.07;;;18.70;99.90;;;;;;5010329;28;20676;-95
2021/07/03 07:22:42;;;;;;;6.77;6.20;;;19.00;99.90;;;;;;5007301;28;20636;-96
2021/07/03 07:25:12;;;;;;;7.00;6.40;;;19.10;99.90;;;;;;5019868;28;20767;-94
2021/07/03 07:27:39;;;;;;;7.80;6.30;;;19.30;99.90;;;;;;5009728;28;20647;-93
2021/07/03 07:30:12;;;;;;;8.10;6.50;;;19.10;99.90;;;;;;4996531;28;20662;-92
2021/07/03 07:32:40;;;;;;;8.23;7.13;;;19.20;99.90;;;;;;5000212;28;20638;-95
2021/07/03 07:35:08;;;;;;;7.23;6.63;;;19.20;99.90;;;;;;4992092;28;21294;-93
2021/07/03 07:45:42;;;;;;;7.40;6.80;;;20.20;99.90;;;;;;4994855;28;20645;-95
2021/07/03 07:48:09;;;;;;;8.23;7.47;;;20.10;99.90;;;;;;4993333;28;20657;-95
2021/07/03 07:50:39;;;;;;;7.03;6.37;;;20.20;99.90;;;;;;4982518;28;20634;-96
2021/07/03 07:53:08;;;;;;;6.83;6.03;;;20.00;99.90;;;;;;4982566;28;20619;-96
2021/07/03 07:55:35;;;;;;;7.30;6.70;;;19.80;99.90;;;;;;4987668;28;20641;-96
2021/07/03 07:58:08;;;;;;;11.67;8.30;;;19.90;99.90;;;;;;4984922;28;20660;-96
2021/07/03 08:04:45;;;;;;;9.70;7.40;;;20.30;99.90;;;;;;4963591;28;20624;-96
2021/07/03 08:07:15;;;;;;;10.40;9.40;;;20.30;99.90;;;;;;4982274;28;20669;-96
2021/07/03 08:09:56;;;;;;;9.47;6.60;;;20.50;99.90;;;;;;4982098;28;20721;-96
2021/07/03 08:12:31;;;;;;;8.00;7.20;;;20.50;99.90;;;;;;4987560;28;20633;-95
2021/07/03 08:15:19;;;;;;;7.80;7.10;;;20.30;99.90;;;;;;4976830;28;20638;-96
2021/07/03 08:18:11;;;;;;;8.20;7.40;;;20.70;99.90;;;;;;4979385;28;20715;-96
2021/07/03 08:28:14;;;;;;;8.10;7.30;;;21.30;99.90;;;;;;5102403;28;20613;-95
2021/07/03 08:30:47;;;;;;;10.47;6.60;;;21.30;99.90;;;;;;5099248;28;20625;-96
2021/07/03 08:33:29;;;;;;;6.27;5.77;;;21.50;99.90;;;;;;5104466;28;20706;-96
2021/07/03 08:35:59;;;;;;;6.47;5.97;;;21.50;99.90;;;;;;5105011;28;20644;-96
2021/07/03 08:38:53;;;;;;;5.67;5.23;;;21.60;99.90;;;;;;5093397;28;20727;-95
2021/07/03 08:41:30;;;;;;;6.33;5.73;;;21.80;99.90;;;;;;5100860;28;20636;-95
2021/07/03 08:44:19;;;;;;;7.77;7.00;;;21.80;99.90;;;;;;5103082;28;20711;-96
2021/07/03 08:49:31;;;;;;;6.90;6.30;;;22.10;99.90;;;;;;5098716;28;20628;-96
2021/07/03 08:52:00;;;;;;;6.53;5.87;;;22.20;99.90;;;;;;5094422;28;20656;-95
2021/07/03 08:54:35;;;;;;;8.20;5.80;;;22.30;99.90;;;;;;5095713;28;20682;-94
2021/07/03 08:57:10;;;;;;;6.70;6.10;;;22.40;99.90;;;;;;5090237;28;20732;-91
2021/07/03 08:59:56;;;;;;;6.33;5.83;;;22.50;99.90;;;;;;5086195;28;20604;-90
2021/07/03 09:02:35;;;;;;;5.70;5.30;;;22.70;99.90;;;;;;5075450;28;20673;-93
2021/07/03 09:05:07;;;;;;;6.27;5.77;;;23.00;99.90;;;;;;5084319;28;20719;-92
2021/07/03 09:07:36;;;;;;;6.13;5.23;;;23.20;99.90;;;;;;5085500;28;20640;-92
2021/07/03 09:10:11;;;;;;;6.37;5.80;;;23.40;99.70;;;;;;5085953;28;21159;-93
2021/07/03 09:12:40;;;;;;;6.00;5.50;;;23.30;99.90;;;;;;5087890;28;20674;-92
2021/07/03 09:15:19;;;;;;;6.13;5.63;;;23.50;98.20;;;;;;5090175;28;20633;-93
2021/07/03 09:17:53;;;;;;;5.80;5.40;;;23.50;98.80;;;;;;5088574;28;20699;-91
2021/07/03 09:20:44;;;;;;;6.63;5.43;;;23.40;98.50;;;;;;5091450;28;20624;-91
2021/07/03 09:23:13;;;;;;;4.70;4.37;;;23.50;95.80;;;;;;5090777;28;20682;-92
2021/07/03 09:25:57;;;;;;;5.10;4.70;;;23.50;95.00;;;;;;5097656;28;21155;-95
2021/07/03 09:28:40;;;;;;;5.77;5.20;;;23.80;95.10;;;;;;5086325;28;21055;-92
2021/07/03 09:31:15;;;;;;;5.30;4.90;;;23.70;94.20;;;;;;5096895;28;20652;-94
2021/07/03 09:33:53;;;;;;;5.73;5.33;;;23.80;95.10;;;;;;5082890;28;20655;-92
2021/07/03 09:36:33;;;;;;;5.33;4.93;;;23.80;94.80;;;;;;5074987;28;20638;-92
2021/07/03 09:39:02;;;;;;;7.63;5.07;;;24.10;94.70;;;;;;5075761;28;20589;-93
2021/07/03 09:41:37;;;;;;;5.03;4.53;;;24.40;94.80;;;;;;5075023;28;20736;-93
2021/07/03 09:44:14;;;;;;;5.77;5.27;;;24.20;92.90;;;;;;5082018;28;20671;-95
2021/07/03 09:46:50;;;;;;;5.00;4.50;;;24.40;92.30;;;;;;5079263;28;20660;-95
2021/07/03 09:49:28;;;;;;;5.77;5.37;;;24.50;90.60;;;;;;5078357;28;20632;-96
2021/07/03 09:51:57;;;;;;;5.90;5.40;;;24.30;90.60;;;;;;5082980;28;20667;-95
2021/07/03 09:54:34;;;;;;;5.50;5.10;;;24.50;91.30;;;;;;5081244;28;20648;-94
2021/07/03 09:57:01;;;;;;;5.10;4.70;;;24.80;92.20;;;;;;5084053;28;20589;-95
2021/07/03 09:59:31;;;;;;;5.57;5.00;;;24.80;91.60;;;;;;5079487;28;20605;-95
2021/07/03 10:05:36;;;;;;;5.03;4.53;;;24.80;91.50;;;;;;5078728;28;20549;-95
2021/07/03 10:11:01;;;;;;;4.97;4.57;;;25.10;87.30;;;;;;5095929;28;20597;-96
2021/07/03 10:13:48;;;;;;;4.77;4.37;;;24.80;87.10;;;;;;5080676;28;20655;-96
2021/07/03 10:16:30;;;;;;;4.40;4.10;;;24.90;86.40;;;;;;5086028;28;20652;-96
2021/07/03 10:19:10;;;;;;;5.00;4.60;;;25.10;84.80;;;;;;5081725;28;20630;-96
2021/07/03 10:21:57;;;;;;;4.70;4.40;;;25.40;86.00;;;;;;5087418;28;20643;-96
2021/07/03 10:24:48;;;;;;;5.77;4.20;;;25.10;85.40;;;;;;5084327;28;20657;-96
2021/07/03 10:33:20;;;;;;;4.47;4.07;;;25.90;84.00;;;;;;5088685;28;20749;-96
2021/07/03 10:38:56;;;;;;;5.60;5.00;;;25.90;82.70;;;;;;5079013;28;20609;-96
2021/07/03 10:41:26;;;;;;;4.57;4.27;;;26.10;81.30;;;;;;5087278;28;20636;-95
2021/07/03 10:44:04;;;;;;;4.90;4.20;;;25.90;81.10;;;;;;5087571;28;20731;-95
2021/07/03 10:46:33;;;;;;;5.60;5.10;;;26.40;79.80;;;;;;5070955;28;20633;-96
2021/07/03 10:49:05;;;;;;;4.80;4.50;;;26.30;85.70;;;;;;5074304;28;20724;-96
2021/07/03 10:51:35;;;;;;;4.93;4.53;;;26.30;78.30;;;;;;5070148;28;20648;-94
2021/07/03 10:54:30;;;;;;;3.63;3.40;;;26.60;81.60;;;;;;5073535;28;20783;-95
2021/07/03 10:57:03;;;;;;;4.63;4.27;;;26.80;82.50;;;;;;5074075;28;20686;-96
2021/07/03 10:59:34;;;;;;;4.87;4.47;;;26.60;81.30;;;;;;5073850;28;20637;-96
2021/07/03 11:02:12;;;;;;;4.67;4.30;;;26.90;80.40;;;;;;5066863;28;20666;-95
2021/07/03 11:04:48;;;;;;;5.40;5.00;;;27.30;79.70;;;;;;5075524;28;20755;-95
2021/07/03 11:07:17;;;;;;;4.33;3.93;;;27.50;75.20;;;;;;5075846;28;20612;-96
2021/07/03 11:09:52;;;;;;;4.43;4.13;;;27.30;71.00;;;;;;5077915;28;20729;-96
2021/07/03 11:12:24;;;;;;;3.97;3.67;;;27.20;67.60;;;;;;5077393;28;21034;-96
2021/07/03 11:14:59;;;;;;;4.10;3.80;;;27.40;68.90;;;;;;5069992;28;20709;-96
2021/07/03 11:17:28;;;;;;;4.07;3.00;;;27.60;68.70;;;;;;5073215;28;20651;-96
2021/07/03 11:19:56;;;;;;;4.30;3.80;;;27.90;67.60;;;;;;5078537;28;20744;-96
2021/07/03 11:22:27;;;;;;;3.67;3.37;;;28.10;67.40;;;;;;5069306;28;20649;-96
2021/07/03 11:25:02;;;;;;;3.83;3.63;;;28.20;64.70;;;;;;5073814;28;21307;-96
2021/07/03 11:27:31;;;;;;;4.10;3.70;;;28.40;64.20;;;;;;5067155;28;20708;-96
2021/07/03 11:30:02;;;;;;;4.77;4.40;;;28.40;65.40;;;;;;5073647;28;20645;-95
2021/07/03 11:32:34;;;;;;;3.77;3.47;;;28.00;64.30;;;;;;5076954;28;20649;-94
2021/07/03 11:35:04;;;;;;;3.87;3.60;;;28.20;64.50;;;;;;5073107;28;21289;-93
2021/07/03 11:37:33;;;;;;;4.80;4.50;;;27.90;64.10;;;;;;5070976;28;20830;-93
2021/07/03 11:40:04;;;;;;;4.53;4.23;;;28.40;65.50;;;;;;5069694;28;20293;-93
2021/07/03 11:42:34;;;;;;;4.83;4.43;;;28.40;64.80;;;;;;5069102;28;21304;-93
2021/07/03 11:45:15;;;;;;;4.40;4.10;;;28.90;67.60;;;;;;5070113;28;21081;-94
2021/07/03 11:47:50;;;;;;;3.30;3.10;;;29.20;63.90;;;;;;5071723;28;20637;-94
2021/07/03 11:50:30;;;;;;;4.60;4.20;;;29.40;60.10;;;;;;5068984;28;21175;-95
2021/07/03 11:53:01;;;;;;;5.07;4.67;;;29.60;60.20;;;;;;5071151;28;20683;-96
2021/07/03 11:55:33;;;;;;;3.83;3.63;;;29.40;62.00;;;;;;5067788;28;21163;-94
2021/07/03 11:58:06;;;;;;;3.70;3.30;;;29.60;58.00;;;;;;5075515;28;21180;-94
2021/07/03 12:00:45;;;;;;;4.80;4.50;;;29.20;57.40;;;;;;5078341;28;21193;-95
2021/07/03 12:03:15;;;;;;;3.53;3.33;;;29.30;58.80;;;;;;5085827;28;20663;-94
2021/07/03 12:05:46;;;;;;;4.00;3.60;;;29.40;59.40;;;;;;5081179;28;20643;-94
2021/07/03 12:08:15;;;;;;;4.10;3.80;;;30.00;60.60;;;;;;5068213;28;20628;-92
2021/07/03 12:10:51;;;;;;;4.10;3.40;;;29.90;59.60;;;;;;5065138;28;20577;-94
2021/07/03 12:13:23;;;;;;;3.67;3.40;;;30.50;58.20;;;;;;5070372;28;20671;-94
2021/07/03 12:16:04;;;;;;;3.80;3.53;;;31.00;58.00;;;;;;5064415;28;20777;-93
2021/07/03 12:18:32;;;;;;;3.50;3.30;;;31.20;53.40;;;;;;5070841;28;20661;-93
2021/07/03 12:21:04;;;;;;;3.83;3.53;;;31.30;52.20;;;;;;5071417;28;20632;-93
2021/07/03 12:23:32;;;;;;;3.70;3.40;;;31.40;52.10;;;;;;5067833;28;21218;-92
2021/07/03 12:26:03;;;;;;;3.20;2.90;;;31.40;56.50;;;;;;5066193;28;20554;-92
2021/07/03 12:28:30;;;;;;;3.07;2.73;;;31.20;52.10;;;;;;5066660;28;20202;-92
2021/07/03 12:31:09;;;;;;;7.03;3.50;;;31.20;52.60;;;;;;5067841;28;20209;-92
2021/07/03 12:33:40;;;;;;;5.47;3.37;;;31.70;53.30;;;;;;5069122;28;20308;-93
2021/07/03 12:36:19;;;;;;;3.43;3.23;;;31.80;52.80;;;;;;5068941;28;20245;-93
2021/07/03 12:38:47;;;;;;;3.40;3.20;;;32.50;51.90;;;;;;5068326;28;20672;-92
2021/07/03 12:41:15;;;;;;;3.80;3.50;;;31.90;51.40;;;;;;5066329;28;20272;-93
2021/07/03 12:43:42;;;;;;;4.00;3.67;;;31.60;51.40;;;;;;5067051;28;20226;-92
2021/07/03 12:46:11;;;;;;;3.43;3.23;;;32.30;52.00;;;;;;5062206;28;20207;-93
2021/07/03 12:48:40;;;;;;;4.18;3.80;;;33.20;50.60;;;;;;5063434;28;20207;-93
2021/07/03 12:51:13;;;;;;;3.47;3.28;;;33.20;50.10;;;;;;5067721;28;20297;-92
2021/07/03 12:53:42;;;;;;;3.53;3.33;;;32.40;48.90;;;;;;5067941;28;20230;-93
2021/07/03 12:56:09;;;;;;;3.67;3.42;;;32.60;49.30;;;;;;5067213;28;20285;-93
2021/07/03 12:58:38;;;;;;;4.28;3.88;;;32.90;48.60;;;;;;5064263;28;20209;-93
2021/07/03 13:01:06;;;;;;;3.72;3.00;;;33.10;50.90;;;;;;5062296;28;20195;-92
2021/07/03 13:03:34;;;;;;;3.60;3.30;;;33.00;48.40;;;;;;5065120;28;20356;-91
2021/07/03 13:06:03;;;;;;;3.70;3.42;;;32.80;47.30;;;;;;5063590;28;20203;-91
2021/07/03 13:08:32;;;;;;;4.13;3.83;;;32.80;49.00;;;;;;5061256;28;20195;-91
2021/07/03 13:11:00;;;;;;;4.30;3.90;;;33.90;48.90;;;;;;5068130;28;20289;-90
2021/07/03 13:13:27;;;;;;;3.85;3.65;;;34.10;48.60;;;;;;5069378;28;20237;-90
2021/07/03 13:15:55;;;;;;;3.90;3.65;;;34.20;47.30;;;;;;5070315;28;20198;-91
2021/07/03 13:18:22;;;;;;;3.10;2.90;;;33.80;47.40;;;;;;5070832;28;20202;-91
2021/07/03 13:20:50;;;;;;;3.83;3.53;;;34.60;45.60;;;;;;5072340;28;20206;-92
2021/07/03 13:26:05;;;;;;;3.72;3.53;;;34.50;46.10;;;;;;5055309;28;20289;-91
2021/07/03 13:28:34;;;;;;;3.65;3.45;;;35.00;46.10;;;;;;5071256;28;20540;-92
2021/07/03 13:31:05;;;;;;;4.13;3.72;;;34.60;46.80;;;;;;5070128;28;20210;-91
2021/07/03 13:33:55;;;;;;;3.90;3.70;;;32.80;47.30;;;;;;5072563;28;20268;-92